createdAt,value
2023-05-30T00:01:08.425Z,99579.44
2023-05-30T00:03:40.938Z,99581.94
2023-05-30T00:06:14.241Z,99581.53
2023-05-30T00:08:46.359Z,99581.56
2023-05-30T00:11:19.492Z,99583.88
2023-05-30T00:13:52.073Z,99581.78
2023-05-30T00:16:25.174Z,99581.44
2023-05-30T00:18:57.541Z,99578.59
2023-05-30T00:21:29.876Z,99582.69
2023-05-30T00:24:03.326Z,99579.59
2023-05-30T00:26:35.114Z,99580.63
2023-05-30T00:29:10.063Z,99576.53
2023-05-30T00:31:44.870Z,99578.59
2023-05-30T00:34:16.671Z,99571.22
2023-05-30T00:36:50.828Z,99578.81
2023-05-30T00:39:22.644Z,99576.75
2023-05-30T00:41:54.428Z,99576.38
2023-05-30T00:44:26.277Z,99580.28
2023-05-30T00:47:00.347Z,99577.19
2023-05-30T00:49:33.905Z,99582.34
2023-05-30T00:52:06.804Z,99583.38
2023-05-30T00:54:42.829Z,99584.81
2023-05-30T00:57:15.868Z,99585.84
2023-05-30T00:59:48.741Z,99582.97
2023-05-30T01:02:20.623Z,99585.00
2023-05-30T01:04:52.382Z,99583.16
2023-05-30T01:07:24.561Z,99582.75
2023-05-30T01:09:57.591Z,99580.91
2023-05-30T01:12:43.375Z,99584.41
2023-05-30T01:15:21.467Z,99585.44
2023-05-30T01:18:27.449Z,99591.81
2023-05-30T01:21:02.278Z,99587.69
2023-05-30T01:23:56.506Z,99598.19
2023-05-30T01:26:28.303Z,99595.31
2023-05-30T01:29:03.841Z,99585.44
2023-05-30T01:31:35.900Z,99593.84
2023-05-30T01:34:08.255Z,99595.91
2023-05-30T01:36:40.030Z,99597.13
2023-05-30T01:39:12.674Z,99596.31
2023-05-30T01:41:58.385Z,99595.47
2023-05-30T01:44:41.306Z,99602.47
2023-05-30T01:47:36.364Z,99598.78
2023-05-30T01:50:16.032Z,99599.19
2023-05-30T01:52:53.781Z,99599.59
2023-05-30T01:55:29.944Z,99610.28
2023-05-30T01:58:03.169Z,99599.00
2023-05-30T02:00:36.438Z,99600.63
2023-05-30T02:03:09.570Z,99613.34
2023-05-30T02:05:41.431Z,99606.97
2023-05-30T02:08:13.207Z,99607.41
2023-05-30T02:10:45.172Z,99607.22
2023-05-30T02:13:16.941Z,99605.75
2023-05-30T02:15:51.466Z,99604.50
2023-05-30T02:18:28.602Z,99607.19
2023-05-30T02:21:08.685Z,99612.53
2023-05-30T02:23:40.859Z,99608.81
2023-05-30T02:26:12.730Z,99609.44
2023-05-30T02:28:44.587Z,99615.16
2023-05-30T02:31:16.574Z,99614.75
2023-05-30T02:33:48.555Z,99618.44
2023-05-30T02:36:20.480Z,99619.06
2023-05-30T02:38:52.249Z,99620.88
2023-05-30T02:41:24.431Z,99615.56
2023-05-30T02:43:56.284Z,99622.94
2023-05-30T02:46:28.266Z,99617.59
2023-05-30T02:49:00.929Z,99617.59
2023-05-30T02:51:32.793Z,99619.44
2023-05-30T02:54:06.389Z,99623.69
2023-05-30T02:57:08.646Z,99623.69
2023-05-30T03:00:01.726Z,99613.19
2023-05-30T03:02:35.515Z,99621.00
2023-05-30T03:05:14.419Z,99627.56
2023-05-30T03:07:46.522Z,99628.44
2023-05-30T03:10:18.763Z,99634.00
2023-05-30T03:12:54.448Z,99632.78
2023-05-30T03:15:28.064Z,99636.28
2023-05-30T03:18:00.188Z,99640.38
2023-05-30T03:20:32.801Z,99630.75
2023-05-30T03:23:05.849Z,99634.66
2023-05-30T03:25:39.649Z,99633.19
2023-05-30T03:28:11.972Z,99634.25
2023-05-30T03:31:05.230Z,99630.94
2023-05-30T03:33:37.403Z,99625.81
2023-05-30T03:36:11.778Z,99633.19
2023-05-30T03:38:47.209Z,99625.50
2023-05-30T03:41:22.149Z,99627.09
2023-05-30T03:43:55.131Z,99627.31
2023-05-30T03:46:27.469Z,99635.56
2023-05-30T03:48:59.483Z,99633.72
2023-05-30T03:51:34.840Z,99635.84
2023-05-30T03:54:06.698Z,99642.22
2023-05-30T03:56:38.515Z,99641.72
2023-05-30T03:59:13.377Z,99648.91
2023-05-30T04:01:45.491Z,99641.72
2023-05-30T04:04:17.512Z,99644.06
2023-05-30T04:06:49.472Z,99659.44
2023-05-30T04:09:21.735Z,99656.97
2023-05-30T04:11:54.246Z,99659.44
2023-05-30T04:14:26.084Z,99650.81
2023-05-30T04:16:57.993Z,99650.84
2023-05-30T04:19:29.734Z,99651.03
2023-05-30T04:22:03.672Z,99654.25
2023-05-30T04:24:35.588Z,99655.34
2023-05-30T04:27:14.491Z,99644.28
2023-05-30T04:29:47.567Z,99645.72
2023-05-30T04:32:20.506Z,99650.25
2023-05-30T04:35:00.429Z,99650.06
2023-05-30T04:37:34.967Z,99655.81
2023-05-30T04:40:09.994Z,99657.06
2023-05-30T04:42:43.682Z,99660.78
2023-05-30T04:45:19.174Z,99668.59
2023-05-30T04:47:55.075Z,99663.66
2023-05-30T04:50:30.655Z,99669.41
2023-05-30T04:53:02.398Z,99666.72
2023-05-30T04:55:35.539Z,99671.41
2023-05-30T04:58:07.370Z,99674.28
2023-05-30T05:00:40.559Z,99682.13
2023-05-30T05:03:12.439Z,99687.84
2023-05-30T05:05:44.297Z,99695.28
2023-05-30T05:08:16.201Z,99697.94
2023-05-30T05:10:48.045Z,99693.66
2023-05-30T05:13:19.909Z,99698.00
2023-05-30T05:15:51.894Z,99688.56
2023-05-30T05:18:24.946Z,99688.81
2023-05-30T05:20:57.251Z,99689.56
2023-05-30T05:23:30.668Z,99694.31
2023-05-30T05:26:02.617Z,99693.25
2023-05-30T05:28:34.457Z,99707.03
2023-05-30T05:31:08.612Z,99710.91
2023-05-30T05:33:40.389Z,99705.47
2023-05-30T05:36:12.443Z,99702.91
2023-05-30T05:38:44.323Z,99705.38
2023-05-30T05:41:16.079Z,99706.53
2023-05-30T05:43:56.948Z,99700.88
2023-05-30T05:46:28.862Z,99710.63
2023-05-30T05:49:01.214Z,99713.03
2023-05-30T05:51:33.004Z,99718.31
2023-05-30T05:54:04.832Z,99724.47
2023-05-30T05:56:37.821Z,99715.81
2023-05-30T05:59:09.721Z,99723.34
2023-05-30T06:01:43.900Z,99720.53
2023-05-30T06:04:15.755Z,99729.00
2023-05-30T06:06:47.612Z,99728.53
2023-05-30T06:09:20.028Z,99726.06
2023-05-30T06:11:51.826Z,99713.41
2023-05-30T06:14:23.756Z,99725.66
2023-05-30T06:16:55.928Z,99731.72
2023-05-30T06:19:27.756Z,99722.91
2023-05-30T06:22:03.679Z,99721.41
2023-05-30T06:24:36.009Z,99725.50
2023-05-30T06:27:08.108Z,99725.91
2023-05-30T06:29:40.099Z,99727.69
2023-05-30T06:32:15.952Z,99736.88
2023-05-30T06:34:48.772Z,99733.03
2023-05-30T06:37:20.659Z,99742.03
2023-05-30T06:39:52.628Z,99743.97
2023-05-30T06:42:24.460Z,99736.47
2023-05-30T06:44:56.531Z,99741.47
2023-05-30T06:47:29.821Z,99735.91
2023-05-30T06:50:01.882Z,99743.97
2023-05-30T06:52:33.697Z,99756.59
2023-05-30T06:55:06.602Z,99748.78
2023-05-30T06:57:38.449Z,99752.03
2023-05-30T07:00:10.913Z,99748.31
2023-05-30T07:02:42.963Z,99752.91
2023-05-30T07:05:14.825Z,99763.44
2023-05-30T07:07:46.758Z,99754.59
2023-05-30T07:10:21.410Z,99763.66
2023-05-30T07:12:53.800Z,99754.88
2023-05-30T07:15:27.063Z,99757.22
2023-05-30T07:17:59.214Z,99748.00
2023-05-30T07:20:31.298Z,99758.06
2023-05-30T07:23:03.135Z,99758.50
2023-05-30T07:25:34.920Z,99751.63
2023-05-30T07:28:06.755Z,99756.41
2023-05-30T07:30:38.519Z,99750.66
2023-05-30T07:35:42.419Z,99748.72
2023-05-30T07:38:14.219Z,99747.47
2023-05-30T07:40:48.798Z,99753.50
2023-05-30T07:43:20.634Z,99755.88
2023-05-30T07:45:52.454Z,99755.69
2023-05-30T07:48:24.938Z,99764.06
2023-05-30T07:50:56.826Z,99762.81
2023-05-30T07:53:28.668Z,99761.72
2023-05-30T07:56:00.721Z,99762.72
2023-05-30T07:58:32.592Z,99760.91
2023-05-30T08:01:05.567Z,99754.53
2023-05-30T08:03:37.594Z,99760.50
2023-05-30T08:06:09.548Z,99758.47
2023-05-30T08:08:41.979Z,99760.91
2023-05-30T08:11:17.313Z,99760.19
2023-05-30T08:13:49.106Z,99754.97
2023-05-30T08:16:21.588Z,99742.19
2023-05-30T08:18:53.821Z,99743.13
2023-05-30T08:21:25.730Z,99750.47
2023-05-30T08:24:00.348Z,99744.53
2023-05-30T08:26:33.181Z,99756.94
2023-05-30T08:29:08.251Z,99748.28
2023-05-30T08:31:40.118Z,99750.34
2023-05-30T08:34:12.056Z,99754.28
2023-05-30T08:36:46.851Z,99755.53
2023-05-30T08:39:19.859Z,99752.25
2023-05-30T08:41:52.027Z,99760.72
2023-05-30T08:44:23.982Z,99753.25
2023-05-30T08:46:57.037Z,99749.84
2023-05-30T08:49:32.731Z,99752.13
2023-05-30T08:52:05.507Z,99758.31
2023-05-30T08:54:59.474Z,99767.16
2023-05-30T08:57:43.961Z,99755.75
2023-05-30T09:00:17.253Z,99752.28
2023-05-30T09:02:56.896Z,99767.41
2023-05-30T09:05:30.413Z,99768.44
2023-05-30T09:08:08.782Z,99758.72
2023-05-30T09:10:49.001Z,99762.09
2023-05-30T09:13:22.559Z,99749.75
2023-05-30T09:15:54.495Z,99747.59
2023-05-30T09:21:09.677Z,99756.84
2023-05-30T09:23:44.484Z,99745.22
2023-05-30T09:26:17.121Z,99750.19
2023-05-30T09:28:49.581Z,99750.41
2023-05-30T09:31:24.152Z,99764.38
2023-05-30T09:33:57.284Z,99754.06
2023-05-30T09:36:32.960Z,99757.63
2023-05-30T09:39:07.001Z,99767.78
2023-05-30T09:41:38.804Z,99765.47
2023-05-30T09:44:15.194Z,99781.13
2023-05-30T09:46:48.285Z,99762.56
2023-05-30T09:49:20.354Z,99765.34
2023-05-30T09:51:54.777Z,99762.63
2023-05-30T09:54:26.806Z,99769.88
2023-05-30T09:56:58.694Z,99767.59
2023-05-30T09:59:33.986Z,99774.66
2023-05-30T10:02:06.336Z,99777.59
2023-05-30T10:04:41.192Z,99761.19
2023-05-30T10:07:13.728Z,99767.69
2023-05-30T10:09:46.175Z,99762.81
2023-05-30T10:12:18.447Z,99766.53
2023-05-30T10:14:50.574Z,99763.47
2023-05-30T10:17:24.440Z,99754.75
2023-05-30T10:20:03.340Z,99745.25
2023-05-30T10:22:43.475Z,99756.09
2023-05-30T10:25:19.264Z,99755.94
2023-05-30T10:27:53.692Z,99751.91
2023-05-30T10:30:29.351Z,99748.84
2023-05-30T10:33:09.685Z,99748.63
2023-05-30T10:35:41.685Z,99755.59
2023-05-30T10:38:14.729Z,99754.47
2023-05-30T10:40:56.343Z,99756.00
2023-05-30T10:43:31.568Z,99749.66
2023-05-30T10:46:24.949Z,99743.69
2023-05-30T10:49:01.244Z,99742.97
2023-05-30T10:52:01.680Z,99743.34
2023-05-30T10:54:35.448Z,99747.09
2023-05-30T10:57:22.229Z,99736.78
2023-05-30T10:59:55.859Z,99737.88
2023-05-30T11:02:38.535Z,99739.84
2023-05-30T11:05:14.770Z,99729.25
2023-05-30T11:07:46.789Z,99724.31
2023-05-30T11:10:26.551Z,99733.22
2023-05-30T11:13:12.665Z,99730.78
2023-05-30T11:15:57.128Z,99741.81
2023-05-30T11:18:40.687Z,99731.19
2023-05-30T11:21:13.537Z,99738.94
2023-05-30T11:24:00.561Z,99729.25
2023-05-30T11:26:55.363Z,99728.03
2023-05-30T11:29:34.813Z,99735.50
2023-05-30T11:32:08.541Z,99728.56
2023-05-30T11:34:40.698Z,99733.13
2023-05-30T11:37:12.759Z,99732.41
2023-05-30T11:39:44.574Z,99741.22
2023-05-30T11:42:16.461Z,99738.13
2023-05-30T11:44:48.808Z,99733.72
2023-05-30T11:49:59.009Z,99734.19
2023-05-30T11:52:37.895Z,99739.22
2023-05-30T11:55:10.018Z,99732.06
2023-05-30T11:57:42.113Z,99735.63
2023-05-30T12:00:18.408Z,99732.00
2023-05-30T12:02:53.577Z,99733.47
2023-05-30T12:05:25.830Z,99733.31
2023-05-30T12:07:58.055Z,99729.78
2023-05-30T12:10:31.241Z,99733.31
2023-05-30T12:13:03.543Z,99733.34
2023-05-30T12:15:37.497Z,99732.97
2023-05-30T12:18:10.594Z,99735.56
2023-05-30T12:20:57.381Z,99729.06
2023-05-30T12:23:30.289Z,99716.78
2023-05-30T12:26:02.061Z,99716.22
2023-05-30T12:28:35.242Z,99719.63
2023-05-30T12:31:07.266Z,99721.88
2023-05-30T12:33:39.441Z,99725.31
2023-05-30T12:36:18.848Z,99730.59
2023-05-30T12:38:59.894Z,99727.94
2023-05-30T12:41:32.446Z,99729.25
2023-05-30T12:44:06.229Z,99727.72
2023-05-30T12:46:38.890Z,99728.88
2023-05-30T12:49:10.805Z,99725.69
2023-05-30T12:51:43.580Z,99715.28
2023-05-30T12:54:15.590Z,99721.75
2023-05-30T12:56:47.410Z,99710.63
2023-05-30T12:59:19.832Z,99718.47
2023-05-30T13:01:52.122Z,99739.94
2023-05-30T13:04:24.050Z,99722.53
2023-05-30T13:06:56.720Z,99726.31
2023-05-30T13:09:28.590Z,99720.34
2023-05-30T13:12:00.462Z,99719.13
2023-05-30T13:14:32.413Z,99728.38
2023-05-30T13:17:05.410Z,99723.84
2023-05-30T13:19:38.185Z,99731.88
2023-05-30T13:22:13.499Z,99732.28
2023-05-30T13:24:45.445Z,99719.69
2023-05-30T13:27:17.244Z,99727.84
2023-05-30T13:29:49.003Z,99719.44
2023-05-30T13:32:21.039Z,99724.44
2023-05-30T13:34:52.939Z,99714.88
2023-05-30T13:37:25.765Z,99713.81
2023-05-30T13:39:57.525Z,99716.00
2023-05-30T13:42:29.465Z,99714.75
2023-05-30T13:45:05.322Z,99717.78
2023-05-30T13:47:37.946Z,99711.91
2023-05-30T13:50:10.591Z,99703.88
2023-05-30T13:52:45.333Z,99702.06
2023-05-30T13:55:17.618Z,99716.97
2023-05-30T13:57:49.546Z,99711.41
2023-05-30T14:00:21.411Z,99721.16
2023-05-30T14:02:56.022Z,99714.22
2023-05-30T14:05:28.111Z,99710.31
2023-05-30T14:07:59.902Z,99709.41
2023-05-30T14:10:32.541Z,99701.16
2023-05-30T14:13:09.983Z,99712.69
2023-05-30T14:15:41.816Z,99710.31
2023-05-30T14:18:13.741Z,99715.81
2023-05-30T14:20:45.979Z,99716.28
2023-05-30T14:23:18.826Z,99710.63
2023-05-30T14:25:50.908Z,99701.81
2023-05-30T14:28:22.641Z,99709.66
2023-05-30T14:30:54.976Z,99712.09
2023-05-30T14:33:26.897Z,99721.00
2023-05-30T14:35:59.831Z,99710.31
2023-05-30T14:38:31.600Z,99712.47
2023-05-30T14:41:04.114Z,99714.19
2023-05-30T14:43:37.156Z,99714.34
2023-05-30T14:46:09.156Z,99714.13
2023-05-30T14:48:42.764Z,99716.34
2023-05-30T14:51:14.592Z,99714.88
2023-05-30T14:53:46.363Z,99709.91
2023-05-30T14:56:18.216Z,99708.84
2023-05-30T14:58:50.134Z,99705.06
2023-05-30T15:03:56.823Z,99709.16
2023-05-30T15:06:28.777Z,99708.56
2023-05-30T15:09:00.928Z,99702.75
2023-05-30T15:11:33.287Z,99691.78
2023-05-30T15:14:06.818Z,99696.50
2023-05-30T15:16:40.568Z,99696.84
2023-05-30T15:19:13.764Z,99681.00
2023-05-30T15:21:48.176Z,99691.44
2023-05-30T15:24:20.047Z,99691.28
2023-05-30T15:26:51.972Z,99687.66
2023-05-30T15:29:23.766Z,99690.41
2023-05-30T15:31:55.809Z,99687.91
2023-05-30T15:34:27.659Z,99685.00
2023-05-30T15:37:00.644Z,99683.13
2023-05-30T15:39:32.552Z,99690.69
2023-05-30T15:42:04.821Z,99675.22
2023-05-30T15:44:37.997Z,99689.00
2023-05-30T15:47:10.130Z,99686.31
2023-05-30T15:49:43.023Z,99671.13
2023-05-30T15:52:15.393Z,99675.94
2023-05-30T15:54:47.146Z,99678.38
2023-05-30T15:57:19.256Z,99666.22
2023-05-30T15:59:55.140Z,99670.28
2023-05-30T16:02:27.112Z,99662.94
2023-05-30T16:04:58.881Z,99675.81
2023-05-30T16:07:30.686Z,99667.56
2023-05-30T16:10:05.359Z,99670.84
2023-05-30T16:12:38.245Z,99669.97
2023-05-30T16:15:12.270Z,99674.16
2023-05-30T16:17:44.281Z,99673.28
2023-05-30T16:20:16.476Z,99672.13
2023-05-30T16:22:48.390Z,99671.81
2023-05-30T16:25:20.363Z,99682.91
2023-05-30T16:27:52.226Z,99678.56
2023-05-30T16:30:24.025Z,99680.81
2023-05-30T16:32:55.851Z,99675.31
2023-05-30T16:35:28.133Z,99675.88
2023-05-30T16:37:59.951Z,99687.59
2023-05-30T16:40:31.685Z,99688.19
2023-05-30T16:43:03.474Z,99683.06
2023-05-30T16:45:35.332Z,99681.00
2023-05-30T16:48:07.487Z,99686.38
2023-05-30T16:50:42.245Z,99686.47
2023-05-30T16:53:14.091Z,99693.59
2023-05-30T16:55:45.947Z,99684.47
2023-05-30T16:58:20.644Z,99691.97
2023-05-30T17:00:52.866Z,99687.06
2023-05-30T17:03:27.579Z,99695.88
2023-05-30T17:05:59.537Z,99693.53
2023-05-30T17:08:33.057Z,99693.66
2023-05-30T17:11:05.408Z,99700.56
2023-05-30T17:13:37.264Z,99696.00
2023-05-30T17:16:09.236Z,99698.22
2023-05-30T17:18:42.217Z,99712.97
2023-05-30T17:21:14.675Z,99713.91
2023-05-30T17:23:46.535Z,99712.38
2023-05-30T17:26:18.234Z,99710.16
2023-05-30T17:28:50.066Z,99716.94
2023-05-30T17:31:22.074Z,99719.28
2023-05-30T17:33:53.984Z,99718.09
2023-05-30T17:36:29.510Z,99718.19
2023-05-30T17:39:01.425Z,99725.56
2023-05-30T17:41:33.289Z,99716.31
2023-05-30T17:44:05.967Z,99724.97
2023-05-30T17:46:38.084Z,99720.19
2023-05-30T17:49:12.806Z,99722.50
2023-05-30T17:51:44.397Z,99726.94
2023-05-30T17:54:16.362Z,99728.81
2023-05-30T17:56:48.796Z,99728.81
2023-05-30T17:59:21.034Z,99733.63
2023-05-30T18:01:52.914Z,99738.63
2023-05-30T18:04:25.180Z,99740.75
2023-05-30T18:06:57.007Z,99739.44
2023-05-30T18:09:28.894Z,99735.78
2023-05-30T18:12:01.126Z,99739.19
2023-05-30T18:14:34.051Z,99741.75
2023-05-30T18:17:06.322Z,99748.25
2023-05-30T18:19:38.163Z,99750.94
2023-05-30T18:22:09.918Z,99751.91
2023-05-30T18:24:41.798Z,99752.47
2023-05-30T18:27:13.628Z,99758.28
2023-05-30T18:29:48.304Z,99752.91
2023-05-30T18:32:20.527Z,99756.06
2023-05-30T18:34:53.459Z,99759.78
2023-05-30T18:37:25.735Z,99762.59
2023-05-30T18:39:57.840Z,99764.94
2023-05-30T18:42:29.747Z,99763.22
2023-05-30T18:45:01.548Z,99765.53
2023-05-30T18:47:33.340Z,99768.22
2023-05-30T18:50:06.240Z,99779.03
2023-05-30T18:52:41.145Z,99776.28
2023-05-30T18:55:13.121Z,99774.50
2023-05-30T18:57:44.936Z,99783.69
2023-05-30T19:00:18.481Z,99784.28
2023-05-30T19:02:52.749Z,99787.22
2023-05-30T19:05:26.004Z,99797.13
2023-05-30T19:07:57.852Z,99790.78
2023-05-30T19:10:29.720Z,99791.81
2023-05-30T19:13:01.492Z,99805.31
2023-05-30T19:15:34.215Z,99805.16
2023-05-30T19:18:07.687Z,99802.34
2023-05-30T19:20:39.961Z,99819.53
2023-05-30T19:23:15.064Z,99814.84
2023-05-30T19:25:46.866Z,99821.47
2023-05-30T19:28:18.823Z,99816.31
2023-05-30T19:30:50.876Z,99813.25
2023-05-30T19:33:23.678Z,99816.78
2023-05-30T19:35:55.623Z,99827.38
2023-05-30T19:38:27.493Z,99825.50
2023-05-30T19:41:00.919Z,99830.31
2023-05-30T19:43:34.460Z,99843.22
2023-05-30T19:46:08.349Z,99842.53
2023-05-30T19:48:40.342Z,99849.03
2023-05-30T19:51:13.855Z,99847.44
2023-05-30T19:53:45.618Z,99846.03
2023-05-30T19:56:17.440Z,99856.19
2023-05-30T19:58:49.410Z,99852.13
2023-05-30T20:01:21.337Z,99859.38
2023-05-30T20:03:55.754Z,99866.00
2023-05-30T20:06:31.051Z,99865.38
2023-05-30T20:09:02.795Z,99864.75
2023-05-30T20:11:34.822Z,99874.25
2023-05-30T20:14:09.474Z,99862.31
2023-05-30T20:16:41.444Z,99867.25
2023-05-30T20:19:16.085Z,99874.06
2023-05-30T20:21:47.721Z,99874.69
2023-05-30T20:24:19.879Z,99881.72
2023-05-30T20:26:51.682Z,99883.97
2023-05-30T20:29:24.323Z,99876.75
2023-05-30T20:31:56.265Z,99877.16
2023-05-30T20:34:28.228Z,99882.31
2023-05-30T20:37:01.127Z,99894.66
2023-05-30T20:39:32.908Z,99895.28
2023-05-30T20:42:08.135Z,99896.09
2023-05-30T20:44:42.052Z,99892.16
2023-05-30T20:47:14.036Z,99887.22
2023-05-30T20:49:47.573Z,99892.78
2023-05-30T20:52:19.471Z,99904.72
2023-05-30T20:54:51.424Z,99901.41
2023-05-30T20:57:23.652Z,99905.31
2023-05-30T20:59:55.521Z,99911.25
2023-05-30T21:02:27.308Z,99905.31
2023-05-30T21:04:59.152Z,99908.16
2023-05-30T21:07:31.245Z,99907.53
2023-05-30T21:10:03.097Z,99912.47
2023-05-30T21:12:34.921Z,99905.91
2023-05-30T21:15:07.250Z,99910.63
2023-05-30T21:17:39.170Z,99911.81
2023-05-30T21:20:11.205Z,99906.88
2023-05-30T21:22:44.755Z,99907.84
2023-05-30T21:25:17.001Z,99911.53
2023-05-30T21:27:48.887Z,99908.00
2023-05-30T21:30:22.770Z,99913.13
2023-05-30T21:32:56.256Z,99913.69
2023-05-30T21:35:28.049Z,99911.44
2023-05-30T21:37:59.840Z,99914.47
2023-05-30T21:40:31.617Z,99921.06
2023-05-30T21:43:03.418Z,99917.09
2023-05-30T21:45:35.220Z,99916.88
2023-05-30T21:48:10.684Z,99919.31
2023-05-30T21:50:42.724Z,99922.78
2023-05-30T21:53:15.638Z,99923.56
2023-05-30T21:55:47.443Z,99917.16
2023-05-30T21:58:19.340Z,99916.09
2023-05-30T22:00:51.217Z,99911.34
2023-05-30T22:03:23.463Z,99922.81
2023-05-30T22:05:55.596Z,99921.56
2023-05-30T22:08:27.552Z,99924.00
2023-05-30T22:10:59.723Z,99916.53
2023-05-30T22:13:31.777Z,99926.09
2023-05-30T22:16:03.552Z,99921.53
2023-05-30T22:18:36.612Z,99923.97
2023-05-30T22:21:08.369Z,99921.88
2023-05-30T22:23:40.134Z,99921.66
2023-05-30T22:26:14.434Z,99914.41
2023-05-30T22:28:49.215Z,99923.00
2023-05-30T22:31:21.115Z,99922.94
2023-05-30T22:33:56.262Z,99926.13
2023-05-30T22:36:28.032Z,99927.53
2023-05-30T22:38:59.894Z,99919.47
2023-05-30T22:41:31.730Z,99922.72
2023-05-30T22:44:03.622Z,99930.28
2023-05-30T22:46:35.464Z,99914.84
2023-05-30T22:49:07.375Z,99922.22
2023-05-30T22:51:40.636Z,99918.25
2023-05-30T22:54:14.124Z,99920.31
2023-05-30T22:56:45.920Z,99912.66
2023-05-30T22:59:19.214Z,99913.06
2023-05-30T23:01:51.009Z,99910.97
2023-05-30T23:04:25.619Z,99915.81
2023-05-30T23:06:57.336Z,99921.28
2023-05-30T23:09:29.673Z,99919.53
2023-05-30T23:12:01.442Z,99919.03
2023-05-30T23:14:33.234Z,99915.94
2023-05-30T23:17:05.484Z,99917.13
2023-05-30T23:19:37.282Z,99914.84
2023-05-30T23:22:09.136Z,99916.84
2023-05-30T23:24:41.318Z,99912.94
2023-05-30T23:27:13.221Z,99918.81
2023-05-30T23:29:45.056Z,99916.50
2023-05-30T23:32:16.805Z,99908.44
2023-05-30T23:34:48.622Z,99909.16
2023-05-30T23:37:20.471Z,99911.56
2023-05-30T23:39:54.893Z,99915.59
2023-05-30T23:42:26.832Z,99918.66
2023-05-30T23:44:58.669Z,99920.66
2023-05-30T23:47:30.706Z,99920.19
2023-05-30T23:50:02.776Z,99916.06
2023-05-30T23:52:34.500Z,99914.78
2023-05-30T23:55:07.024Z,99918.63
2023-05-30T23:57:38.866Z,99915.53
